Norfolk, Virginia
Traffic Map
Current Weather Conditions
Norfolk, Virginia
Clear
Clear
21°
Feels Like: 21°
Wind Chill: 21° Ceiling: Unl
Heat Index: 21° Visibility: 10mi
Dew Point: 14° Wind: 12mph
Humidity: 65% Direction: 190° (S)
Pressure: 30.29in Gusts: 0mph
Raw Report DataKORF 260251Z AUTO 19010KT 10SM CLR 21/14 A3029 RMK AO2 SLP256 T02110144 53009 TSNO
Traffic Incident Summary
Active as of:
Severity:
Category:
InformationThere was an issue retrieving the traffic information for this location. Please try a different location or try again shortly.
Advertisements
Track Severe Weather on mobile